createdAt,value
2023-04-19T00:01:28.376Z,103011.56
2023-04-19T00:03:56.316Z,103010.91
2023-04-19T00:06:23.412Z,103012.19
2023-04-19T00:08:49.889Z,103008.34
2023-04-19T00:11:16.372Z,103013.06
2023-04-19T00:13:42.852Z,103001.91
2023-04-19T00:16:09.440Z,103008.47
2023-04-19T00:18:36.465Z,102998.13
2023-04-19T00:21:03.053Z,103002.88
2023-04-19T00:23:29.532Z,103004.47
2023-04-19T00:25:55.998Z,103006.16
2023-04-19T00:28:22.472Z,102994.53
2023-04-19T00:30:48.950Z,102999.00
2023-04-19T00:33:15.530Z,102997.22
2023-04-19T00:35:42.360Z,102998.53
2023-04-19T00:38:08.935Z,102988.94
2023-04-19T00:40:36.796Z,102993.03
2023-04-19T00:43:03.285Z,102987.25
2023-04-19T00:45:29.960Z,102993.53
2023-04-19T00:47:56.583Z,102991.75
2023-04-19T00:50:23.194Z,102987.44
2023-04-19T00:52:49.680Z,102990.94
2023-04-19T00:55:16.309Z,102987.88
2023-04-19T00:57:43.064Z,102988.94
2023-04-19T01:00:10.132Z,102991.03
2023-04-19T01:02:36.883Z,102990.34
2023-04-19T01:05:03.582Z,102987.25
2023-04-19T01:07:30.141Z,102987.13
2023-04-19T01:09:56.723Z,102982.91
2023-04-19T01:12:23.220Z,102989.22
2023-04-19T01:14:50.681Z,102991.59
2023-04-19T01:17:18.839Z,102990.03
2023-04-19T01:19:46.078Z,102987.84
2023-04-19T01:22:21.462Z,102991.13
2023-04-19T01:24:47.922Z,102994.50
2023-04-19T01:27:14.730Z,102990.66
2023-04-19T01:29:41.232Z,102992.91
2023-04-19T01:32:07.939Z,102996.31
2023-04-19T01:34:34.519Z,103002.66
2023-04-19T01:37:01.028Z,103002.19
2023-04-19T01:39:27.550Z,102996.31
2023-04-19T01:41:54.005Z,102995.09
2023-04-19T01:44:20.458Z,102995.88
2023-04-19T01:46:46.951Z,102995.72
2023-04-19T01:49:13.508Z,102990.22
2023-04-19T01:51:40.051Z,102981.56
2023-04-19T01:54:06.539Z,102975.88
2023-04-19T01:56:33.267Z,102981.63
2023-04-19T01:58:59.753Z,102972.84
2023-04-19T02:01:26.344Z,102970.75
2023-04-19T02:03:53.066Z,102976.84
2023-04-19T02:06:19.724Z,102971.69
2023-04-19T02:08:46.227Z,102965.47
2023-04-19T02:11:16.776Z,102974.31
2023-04-19T02:13:43.398Z,102969.00
2023-04-19T02:16:10.872Z,102975.81
2023-04-19T02:18:38.660Z,102968.69
2023-04-19T02:21:06.167Z,102965.50
2023-04-19T02:23:33.062Z,102969.53
2023-04-19T02:26:01.431Z,102974.03
2023-04-19T02:28:27.879Z,102967.81
2023-04-19T02:30:54.314Z,102960.59
2023-04-19T02:33:22.291Z,102962.25
2023-04-19T02:35:48.723Z,102962.16
2023-04-19T02:38:15.581Z,102955.09
2023-04-19T02:40:42.064Z,102958.34
2023-04-19T02:43:08.543Z,102953.47
2023-04-19T02:45:35.121Z,102959.84
2023-04-19T02:48:02.340Z,102948.56
2023-04-19T02:50:28.951Z,102940.25
2023-04-19T02:52:55.423Z,102942.78
2023-04-19T02:55:22.140Z,102942.78
2023-04-19T02:57:48.630Z,102939.19
2023-04-19T03:00:15.532Z,102944.25
2023-04-19T03:02:43.714Z,102942.78
2023-04-19T03:05:10.747Z,102930.47
2023-04-19T03:07:37.205Z,102933.84
2023-04-19T03:10:04.016Z,102934.94
2023-04-19T03:12:30.471Z,102937.03
2023-04-19T03:14:56.933Z,102949.47
2023-04-19T03:17:23.409Z,102931.75
2023-04-19T03:19:49.881Z,102934.88
2023-04-19T03:22:16.288Z,102935.84
2023-04-19T03:24:42.810Z,102929.16
2023-04-19T03:27:09.309Z,102922.88
2023-04-19T03:29:35.816Z,102926.66
2023-04-19T03:32:02.303Z,102930.84
2023-04-19T03:34:28.783Z,102914.31
2023-04-19T03:36:55.577Z,102916.53
2023-04-19T03:39:22.073Z,102913.72
2023-04-19T03:41:48.553Z,102909.38
2023-04-19T03:44:15.446Z,102910.75
2023-04-19T03:46:42.260Z,102920.28
2023-04-19T03:49:08.756Z,102905.19
2023-04-19T03:51:35.373Z,102899.09
2023-04-19T03:54:01.841Z,102910.75
2023-04-19T03:56:28.334Z,102910.53
2023-04-19T03:58:55.625Z,102915.53
2023-04-19T04:01:22.741Z,102913.56
2023-04-19T04:03:49.648Z,102911.53
2023-04-19T04:06:16.404Z,102901.97
2023-04-19T04:08:42.902Z,102902.25
2023-04-19T04:11:09.533Z,102906.19
2023-04-19T04:13:36.091Z,102898.00
2023-04-19T04:16:02.638Z,102902.78
2023-04-19T04:18:29.216Z,102896.81
2023-04-19T04:20:55.705Z,102908.78
2023-04-19T04:23:22.780Z,102907.88
2023-04-19T04:25:58.040Z,102903.38
2023-04-19T04:28:24.546Z,102902.56
2023-04-19T04:30:51.949Z,102895.09
2023-04-19T04:33:18.662Z,102903.16
2023-04-19T04:35:45.117Z,102905.56
2023-04-19T04:38:23.451Z,102903.34
2023-04-19T04:40:54.707Z,102896.19
2023-04-19T04:43:22.853Z,102902.19
2023-04-19T04:45:49.899Z,102898.63
2023-04-19T04:48:16.429Z,102898.41
2023-04-19T04:50:43.026Z,102903.59
2023-04-19T04:53:12.314Z,102902.00
2023-04-19T04:55:39.394Z,102895.59
2023-04-19T04:58:05.935Z,102896.41
2023-04-19T05:00:32.703Z,102894.50
2023-04-19T05:03:00.082Z,102889.81
2023-04-19T05:05:26.780Z,102895.72
2023-04-19T05:07:53.252Z,102890.31
2023-04-19T05:10:19.757Z,102899.41
2023-04-19T05:12:46.241Z,102895.81
2023-04-19T05:15:12.738Z,102890.44
2023-04-19T05:17:39.256Z,102895.09
2023-04-19T05:20:07.794Z,102894.97
2023-04-19T05:22:34.367Z,102900.16
2023-04-19T05:25:01.088Z,102899.16
2023-04-19T05:27:27.553Z,102899.06
2023-04-19T05:29:54.052Z,102898.50
2023-04-19T05:32:20.795Z,102895.50
2023-04-19T05:34:47.472Z,102893.34
2023-04-19T05:37:14.043Z,102893.28
2023-04-19T05:39:42.868Z,102894.34
2023-04-19T05:42:10.751Z,102899.06
2023-04-19T05:44:37.227Z,102893.06
2023-04-19T05:47:03.723Z,102889.38
2023-04-19T05:49:30.291Z,102892.31
2023-04-19T05:51:57.098Z,102897.88
2023-04-19T05:54:23.850Z,102893.06
2023-04-19T05:56:50.389Z,102896.72
2023-04-19T05:59:16.921Z,102888.41
2023-04-19T06:01:43.524Z,102895.88
2023-04-19T06:04:10.353Z,102892.50
2023-04-19T06:06:38.163Z,102892.88
2023-04-19T06:09:04.910Z,102889.91
2023-04-19T06:11:39.389Z,102897.59
2023-04-19T06:14:14.730Z,102897.72
2023-04-19T06:16:41.779Z,102902.34
2023-04-19T06:19:08.316Z,102904.59
2023-04-19T06:21:34.947Z,102893.03
2023-04-19T06:24:01.610Z,102908.34
2023-04-19T06:26:29.226Z,102902.41
2023-04-19T06:28:55.925Z,102907.63
2023-04-19T06:31:22.461Z,102899.50
2023-04-19T06:33:48.998Z,102897.47
2023-04-19T06:36:15.509Z,102898.28
2023-04-19T06:38:44.443Z,102893.91
2023-04-19T06:41:11.004Z,102895.94
2023-04-19T06:43:37.486Z,102890.94
2023-04-19T06:46:06.908Z,102889.56
2023-04-19T06:48:34.285Z,102890.03
2023-04-19T06:51:01.086Z,102886.06
2023-04-19T06:53:27.587Z,102889.56
2023-04-19T06:56:00.124Z,102881.81
2023-04-19T06:58:27.366Z,102885.88
2023-04-19T07:00:54.154Z,102882.63
2023-04-19T07:03:21.249Z,102897.28
2023-04-19T07:05:48.230Z,102887.09
2023-04-19T07:08:15.008Z,102880.06
2023-04-19T07:10:43.775Z,102878.41
2023-04-19T07:13:13.384Z,102882.38
2023-04-19T07:15:39.944Z,102879.91
2023-04-19T07:18:06.577Z,102876.41
2023-04-19T07:20:33.642Z,102880.03
2023-04-19T07:23:00.211Z,102872.97
2023-04-19T07:25:26.828Z,102875.34
2023-04-19T07:27:54.678Z,102870.56
2023-04-19T07:30:21.321Z,102865.47
2023-04-19T07:32:48.007Z,102870.88
2023-04-19T07:35:14.628Z,102861.69
2023-04-19T07:37:42.701Z,102862.91
2023-04-19T07:40:09.871Z,102860.47
2023-04-19T07:42:36.436Z,102855.09
2023-04-19T07:45:03.231Z,102861.59
2023-04-19T07:47:29.804Z,102859.50
2023-04-19T07:49:56.540Z,102856.34
2023-04-19T07:52:22.992Z,102844.41
2023-04-19T07:54:49.773Z,102852.53
2023-04-19T07:57:16.220Z,102850.84
2023-04-19T07:59:42.679Z,102846.59
2023-04-19T08:02:09.295Z,102838.59
2023-04-19T08:04:37.460Z,102843.44
2023-04-19T08:07:04.877Z,102843.44
2023-04-19T08:09:33.948Z,102838.00
2023-04-19T08:12:01.382Z,102839.97
2023-04-19T08:14:37.432Z,102843.53
2023-04-19T08:17:24.187Z,102842.22
2023-04-19T08:19:52.549Z,102840.03
2023-04-19T08:22:20.345Z,102829.03
2023-04-19T08:24:46.911Z,102833.03
2023-04-19T08:27:13.390Z,102821.16
2023-04-19T08:29:40.578Z,102826.25
2023-04-19T08:32:07.436Z,102824.72
2023-04-19T08:34:39.128Z,102821.84
2023-04-19T08:37:07.276Z,102822.34
2023-04-19T08:39:34.683Z,102802.94
2023-04-19T08:42:11.098Z,102796.16
2023-04-19T08:44:59.689Z,102802.09
2023-04-19T08:47:44.896Z,102793.06
2023-04-19T08:50:32.410Z,102796.22
2023-04-19T08:53:15.636Z,102794.31
2023-04-19T08:56:06.767Z,102795.94
2023-04-19T08:58:52.016Z,102784.06
2023-04-19T09:01:33.917Z,102790.19
2023-04-19T09:04:17.313Z,102774.09
2023-04-19T09:06:53.493Z,102777.53
2023-04-19T09:11:51.624Z,102791.47
2023-04-19T09:14:19.724Z,102781.38
2023-04-19T09:16:46.329Z,102781.38
2023-04-19T09:19:23.439Z,102776.47
2023-04-19T09:21:53.808Z,102775.41
2023-04-19T09:25:04.534Z,102755.19
2023-04-19T09:27:27.192Z,102778.25
2023-04-19T09:29:55.429Z,102772.06
2023-04-19T09:32:22.696Z,102763.53
2023-04-19T09:35:00.427Z,102769.91
2023-04-19T09:39:57.021Z,102768.81
2023-04-19T09:42:42.382Z,102763.00
2023-04-19T09:45:28.289Z,102751.72
2023-04-19T09:48:04.786Z,102747.78
2023-04-19T09:50:32.201Z,102749.16
2023-04-19T09:53:01.042Z,102744.69
2023-04-19T09:55:29.226Z,102747.03
2023-04-19T09:57:58.107Z,102736.06
2023-04-19T10:00:25.103Z,102730.00
2023-04-19T10:02:57.991Z,102731.03
2023-04-19T10:05:25.847Z,102729.63
2023-04-19T10:07:57.460Z,102710.38
2023-04-19T10:10:40.584Z,102727.31
2023-04-19T10:13:19.861Z,102715.69
2023-04-19T10:15:52.705Z,102703.34
2023-04-19T10:18:23.803Z,102715.00
2023-04-19T10:21:00.071Z,102699.38
2023-04-19T10:23:26.785Z,102708.34
2023-04-19T10:26:00.459Z,102704.59
2023-04-19T10:28:31.020Z,102697.13
2023-04-19T10:31:03.489Z,102702.81
2023-04-19T10:33:34.472Z,102696.00
2023-04-19T10:36:01.554Z,102698.34
2023-04-19T10:38:55.517Z,102690.66
2023-04-19T10:41:22.880Z,102696.66
2023-04-19T10:44:08.586Z,102691.22
2023-04-19T10:46:36.173Z,102692.31
2023-04-19T10:49:04.361Z,102682.69
2023-04-19T10:51:44.228Z,102675.47
2023-04-19T10:54:36.537Z,102685.44
2023-04-19T10:57:07.552Z,102677.63
2023-04-19T10:59:35.049Z,102689.03
2023-04-19T11:02:04.337Z,102680.50
2023-04-19T11:04:51.150Z,102679.47
2023-04-19T11:07:18.495Z,102680.00
2023-04-19T11:09:46.085Z,102678.50
2023-04-19T11:12:14.513Z,102672.28
2023-04-19T11:14:42.794Z,102659.13
2023-04-19T11:17:27.762Z,102658.44
2023-04-19T11:20:00.684Z,102670.69
2023-04-19T11:22:36.038Z,102655.75
2023-04-19T11:25:09.230Z,102666.66
2023-04-19T11:27:35.898Z,102658.13
2023-04-19T11:30:07.033Z,102665.56
2023-04-19T11:32:33.731Z,102660.19
2023-04-19T11:35:08.464Z,102666.75
2023-04-19T11:37:38.219Z,102665.88
2023-04-19T11:40:06.523Z,102644.53
2023-04-19T11:42:33.773Z,102646.28
2023-04-19T11:45:00.463Z,102643.03
2023-04-19T11:47:27.426Z,102653.47
2023-04-19T11:49:56.985Z,102631.19
2023-04-19T11:52:25.607Z,102639.28
2023-04-19T11:54:53.094Z,102646.56
2023-04-19T11:57:30.633Z,102635.13
2023-04-19T12:00:11.801Z,102644.56
2023-04-19T12:02:43.827Z,102629.47
2023-04-19T12:05:14.658Z,102637.56
2023-04-19T12:08:00.413Z,102634.53
2023-04-19T12:10:26.956Z,102635.38
2023-04-19T12:12:53.408Z,102633.28
2023-04-19T12:15:21.795Z,102639.28
2023-04-19T12:18:00.550Z,102633.72
2023-04-19T12:20:34.704Z,102615.69
2023-04-19T12:23:01.243Z,102634.72
2023-04-19T12:25:29.448Z,102629.34
2023-04-19T12:27:56.752Z,102612.78
2023-04-19T12:30:23.321Z,102606.03
2023-04-19T12:32:51.477Z,102619.66
2023-04-19T12:35:18.182Z,102612.75
2023-04-19T12:37:44.625Z,102620.28
2023-04-19T12:40:11.912Z,102616.22
2023-04-19T12:42:38.353Z,102610.47
2023-04-19T12:45:05.502Z,102608.53
2023-04-19T12:47:32.025Z,102601.59
2023-04-19T12:49:58.638Z,102613.59
2023-04-19T12:52:25.199Z,102603.00
2023-04-19T12:54:51.680Z,102609.00
2023-04-19T12:57:18.155Z,102594.78
2023-04-19T12:59:44.642Z,102600.97
2023-04-19T13:02:11.165Z,102599.59
2023-04-19T13:04:37.827Z,102604.44
2023-04-19T13:07:04.368Z,102592.31
2023-04-19T13:09:30.860Z,102584.91
2023-04-19T13:11:58.096Z,102602.81
2023-04-19T13:14:26.469Z,102586.28
2023-04-19T13:16:52.991Z,102578.38
2023-04-19T13:19:19.626Z,102576.09
2023-04-19T13:21:46.123Z,102583.31
2023-04-19T13:24:12.595Z,102578.47
2023-04-19T13:26:39.254Z,102565.97
2023-04-19T13:29:05.775Z,102581.19
2023-04-19T13:31:32.309Z,102563.22
2023-04-19T13:34:00.501Z,102572.53
2023-04-19T13:36:28.163Z,102572.97
2023-04-19T13:38:54.759Z,102567.72
2023-04-19T13:41:21.378Z,102575.69
2023-04-19T13:43:48.243Z,102575.50
2023-04-19T13:46:14.814Z,102567.94
2023-04-19T13:48:41.300Z,102560.06
2023-04-19T13:51:08.447Z,102556.03
2023-04-19T13:53:35.004Z,102555.69
2023-04-19T13:56:01.559Z,102543.19
2023-04-19T13:58:28.076Z,102549.81
2023-04-19T14:00:54.722Z,102555.84
2023-04-19T14:03:23.122Z,102555.09
2023-04-19T14:05:49.832Z,102555.78
2023-04-19T14:08:16.387Z,102542.19
2023-04-19T14:10:42.854Z,102546.94
2023-04-19T14:13:09.353Z,102535.78
2023-04-19T14:15:35.887Z,102537.25
2023-04-19T14:18:02.578Z,102539.41
2023-04-19T14:20:29.130Z,102533.72
2023-04-19T14:22:56.208Z,102536.03
2023-04-19T14:25:22.692Z,102529.13
2023-04-19T14:27:49.134Z,102525.78
2023-04-19T14:30:15.842Z,102533.44
2023-04-19T14:32:42.512Z,102517.38
2023-04-19T14:35:11.263Z,102518.56
2023-04-19T14:37:38.451Z,102520.09
2023-04-19T14:40:05.519Z,102512.44
2023-04-19T14:42:32.476Z,102507.34
2023-04-19T14:44:59.047Z,102519.56
2023-04-19T14:47:25.522Z,102505.59
2023-04-19T14:49:52.520Z,102499.91
2023-04-19T14:52:19.192Z,102503.25
2023-04-19T14:54:46.128Z,102504.84
2023-04-19T14:57:13.664Z,102499.66
2023-04-19T14:59:40.382Z,102489.06
2023-04-19T15:02:07.283Z,102499.13
2023-04-19T15:04:37.416Z,102505.09
2023-04-19T15:07:06.327Z,102488.47
2023-04-19T15:09:32.794Z,102498.69
2023-04-19T15:11:59.359Z,102486.47
2023-04-19T15:14:25.795Z,102494.34
2023-04-19T15:16:52.300Z,102488.94
2023-04-19T15:19:19.050Z,102482.22
2023-04-19T15:21:45.897Z,102490.53
2023-04-19T15:24:12.359Z,102482.47
2023-04-19T15:26:39.320Z,102474.22
2023-04-19T15:29:05.855Z,102472.09
2023-04-19T15:31:32.548Z,102478.31
2023-04-19T15:34:02.927Z,102474.06
2023-04-19T15:36:29.672Z,102481.91
2023-04-19T15:38:57.060Z,102485.47
2023-04-19T15:41:23.588Z,102469.53
2023-04-19T15:43:50.045Z,102481.16
2023-04-19T15:46:16.785Z,102476.94
2023-04-19T15:48:44.520Z,102474.16
2023-04-19T15:51:11.507Z,102471.13
2023-04-19T15:53:38.231Z,102477.31
2023-04-19T15:56:05.488Z,102467.78
2023-04-19T15:58:31.993Z,102474.09
2023-04-19T16:00:58.478Z,102459.78
2023-04-19T16:03:25.099Z,102458.13
2023-04-19T16:05:51.839Z,102461.44
2023-04-19T16:08:19.739Z,102456.16
2023-04-19T16:10:47.148Z,102458.38
2023-04-19T16:13:14.326Z,102452.56
2023-04-19T16:15:41.739Z,102452.41
2023-04-19T16:18:08.867Z,102447.19
2023-04-19T16:20:35.639Z,102453.44
2023-04-19T16:23:03.481Z,102451.94
2023-04-19T16:25:30.928Z,102453.75
2023-04-19T16:27:57.461Z,102455.09
2023-04-19T16:30:26.576Z,102448.00
2023-04-19T16:32:57.313Z,102445.72
2023-04-19T16:35:24.301Z,102453.13
2023-04-19T16:37:51.075Z,102445.59
2023-04-19T16:40:17.598Z,102451.16
2023-04-19T16:42:44.091Z,102445.97
2023-04-19T16:45:10.946Z,102457.66
2023-04-19T16:47:37.841Z,102462.31
2023-04-19T16:50:06.078Z,102446.31
2023-04-19T16:52:34.451Z,102449.94
2023-04-19T16:55:03.514Z,102451.59
2023-04-19T16:57:30.933Z,102441.34
2023-04-19T16:59:57.848Z,102437.03
2023-04-19T17:02:24.549Z,102443.78
2023-04-19T17:04:51.527Z,102447.19
2023-04-19T17:07:18.109Z,102441.31
2023-04-19T17:09:44.547Z,102437.78
2023-04-19T17:12:11.031Z,102436.19
2023-04-19T17:14:39.505Z,102437.56
2023-04-19T17:17:06.049Z,102433.91
2023-04-19T17:19:33.122Z,102440.41
2023-04-19T17:22:05.036Z,102445.50
2023-04-19T17:24:33.677Z,102440.41
2023-04-19T17:27:01.060Z,102441.50
2023-04-19T17:29:28.132Z,102438.53
2023-04-19T17:31:56.062Z,102440.72
2023-04-19T17:34:22.959Z,102427.69
2023-04-19T17:36:49.570Z,102431.50
2023-04-19T17:39:16.291Z,102438.84
2023-04-19T17:41:46.144Z,102436.84
2023-04-19T17:44:12.774Z,102437.75
2023-04-19T17:46:40.995Z,102442.97
2023-04-19T17:49:09.495Z,102450.50
2023-04-19T17:51:36.703Z,102439.03
2023-04-19T17:54:03.863Z,102442.41
2023-04-19T17:56:31.841Z,102443.97
2023-04-19T17:59:01.876Z,102433.00
2023-04-19T18:01:30.188Z,102443.81
2023-04-19T18:03:57.394Z,102439.16
2023-04-19T18:06:24.078Z,102432.75
2023-04-19T18:08:50.544Z,102439.59
2023-04-19T18:11:20.684Z,102446.63
2023-04-19T18:13:47.696Z,102449.25
2023-04-19T18:16:15.717Z,102440.91
2023-04-19T18:18:45.215Z,102445.78
2023-04-19T18:21:11.757Z,102450.91
2023-04-19T18:23:38.967Z,102446.19
2023-04-19T18:26:05.432Z,102444.78
2023-04-19T18:28:31.996Z,102447.41
2023-04-19T18:30:58.871Z,102449.25
2023-04-19T18:33:27.328Z,102449.69
2023-04-19T18:35:58.872Z,102454.47
2023-04-19T18:38:33.492Z,102441.81
2023-04-19T18:41:02.182Z,102443.56
2023-04-19T18:43:30.858Z,102444.50
2023-04-19T18:46:00.468Z,102439.50
2023-04-19T18:48:29.464Z,102428.25
2023-04-19T18:50:59.969Z,102433.22
2023-04-19T18:53:29.477Z,102438.88
2023-04-19T18:56:06.361Z,102435.47
2023-04-19T18:58:34.032Z,102433.88
2023-04-19T19:01:00.706Z,102434.50
2023-04-19T19:05:57.815Z,102437.69
2023-04-19T19:08:24.648Z,102445.81
2023-04-19T19:13:42.465Z,102442.69
2023-04-19T19:16:15.031Z,102446.25
2023-04-19T19:18:49.588Z,102444.44
2023-04-19T19:21:22.959Z,102454.66
2023-04-19T19:23:52.531Z,102448.16
2023-04-19T19:26:19.803Z,102451.03
2023-04-19T19:28:47.429Z,102453.22
2023-04-19T19:31:14.017Z,102457.88
2023-04-19T19:33:40.987Z,102452.88
2023-04-19T19:36:07.744Z,102450.84
2023-04-19T19:38:37.504Z,102441.91
2023-04-19T19:41:49.519Z,102442.56
2023-04-19T19:43:53.748Z,102440.22
2023-04-19T19:46:22.682Z,102441.81
2023-04-19T19:48:53.513Z,102438.03
2023-04-19T19:51:48.137Z,102432.16
2023-04-19T19:54:07.201Z,102436.25
2023-04-19T19:59:01.935Z,102433.91
2023-04-19T20:01:28.474Z,102425.25
2023-04-19T20:03:56.051Z,102442.13
2023-04-19T20:08:52.396Z,102420.81
2023-04-19T20:11:19.451Z,102441.50
2023-04-19T20:13:46.136Z,102451.63
2023-04-19T20:16:14.872Z,102453.50
2023-04-19T20:18:44.032Z,102468.19
2023-04-19T20:21:11.299Z,102471.03
2023-04-19T20:23:41.244Z,102471.22
2023-04-19T20:26:07.784Z,102469.31
2023-04-19T20:28:35.307Z,102455.59
2023-04-19T20:31:02.040Z,102461.66
2023-04-19T20:33:34.991Z,102458.63
2023-04-19T20:36:01.927Z,102449.31
2023-04-19T20:38:28.656Z,102438.06
2023-04-19T20:40:55.985Z,102444.03
2023-04-19T20:43:22.619Z,102435.47
2023-04-19T20:45:49.264Z,102442.59
2023-04-19T20:48:16.048Z,102441.22
2023-04-19T20:50:42.705Z,102427.25
2023-04-19T20:53:09.240Z,102426.69
2023-04-19T20:55:35.790Z,102421.88
2023-04-19T20:58:02.569Z,102426.84
2023-04-19T21:00:29.107Z,102415.28
2023-04-19T21:02:55.843Z,102412.63
2023-04-19T21:05:22.703Z,102411.72
2023-04-19T21:07:49.269Z,102412.53
2023-04-19T21:10:17.269Z,102413.56
2023-04-19T21:12:43.896Z,102407.25
2023-04-19T21:15:12.144Z,102403.94
2023-04-19T21:17:38.889Z,102398.09
2023-04-19T21:20:12.030Z,102399.28
2023-04-19T21:22:43.020Z,102404.34
2023-04-19T21:25:11.116Z,102397.78
2023-04-19T21:27:40.332Z,102395.31
2023-04-19T21:30:07.926Z,102387.69
2023-04-19T21:32:34.464Z,102387.47
2023-04-19T21:35:01.455Z,102387.44
2023-04-19T21:37:28.403Z,102373.34
2023-04-19T21:39:56.050Z,102380.81
2023-04-19T21:42:22.833Z,102377.25
2023-04-19T21:44:49.294Z,102380.59
2023-04-19T21:47:15.759Z,102371.44
2023-04-19T21:49:54.751Z,102363.81
2023-04-19T21:52:21.234Z,102376.66
2023-04-19T21:54:48.729Z,102371.31
2023-04-19T21:57:15.221Z,102369.78
2023-04-19T21:59:41.689Z,102367.13
2023-04-19T22:02:08.282Z,102363.88
2023-04-19T22:04:36.675Z,102360.69
2023-04-19T22:07:03.215Z,102362.91
2023-04-19T22:09:30.416Z,102356.38
2023-04-19T22:11:56.891Z,102355.28
2023-04-19T22:14:24.035Z,102343.88
2023-04-19T22:16:50.923Z,102340.69
2023-04-19T22:19:18.224Z,102346.91
2023-04-19T22:21:46.240Z,102343.13
2023-04-19T22:24:12.777Z,102334.28
2023-04-19T22:26:39.230Z,102334.75
2023-04-19T22:29:05.977Z,102335.94
2023-04-19T22:31:32.429Z,102327.91
2023-04-19T22:33:58.912Z,102329.56
2023-04-19T22:36:25.691Z,102321.66
2023-04-19T22:38:52.148Z,102317.09
2023-04-19T22:41:18.595Z,102313.75
2023-04-19T22:43:45.501Z,102308.84
2023-04-19T22:46:12.663Z,102313.88
2023-04-19T22:48:39.197Z,102304.78
2023-04-19T22:51:06.468Z,102297.63
2023-04-19T22:53:33.018Z,102299.91
2023-04-19T22:55:59.451Z,102290.25
2023-04-19T22:58:25.915Z,102289.81
2023-04-19T23:00:52.542Z,102291.63
2023-04-19T23:03:19.046Z,102291.88
2023-04-19T23:05:47.238Z,102283.03
2023-04-19T23:08:15.156Z,102282.03
2023-04-19T23:10:42.410Z,102273.16
2023-04-19T23:13:10.433Z,102270.69
2023-04-19T23:15:38.300Z,102271.72
2023-04-19T23:18:05.020Z,102271.16
2023-04-19T23:20:31.664Z,102264.78
2023-04-19T23:22:59.371Z,102262.16
2023-04-19T23:25:26.011Z,102260.25
2023-04-19T23:27:52.592Z,102260.16
2023-04-19T23:30:19.463Z,102257.78
2023-04-19T23:32:46.029Z,102262.38
2023-04-19T23:35:12.521Z,102252.59
2023-04-19T23:37:39.401Z,102241.25
2023-04-19T23:40:06.666Z,102237.63
2023-04-19T23:42:33.377Z,102231.41
2023-04-19T23:44:59.847Z,102234.88
2023-04-19T23:47:26.427Z,102236.34
2023-04-19T23:49:52.882Z,102223.19
2023-04-19T23:52:22.589Z,102220.69
2023-04-19T23:54:49.632Z,102223.91
2023-04-19T23:57:16.158Z,102222.56
2023-04-19T23:59:42.595Z,102222.94
